KBXA/BXA METAR and TAF weather

Enter ICAO airport designator
Station Type Date Time Source
KBXA METAR 2022/12/04 04:35 UTC NOAA

KBXA 040435Z AUTO 01005KT 10SM SCT008 BKN015 OVC023 20/19 A3029 RMK AO2 T01970186


Station Type Date Time Source
KBXA Decoded METAR 2022/12/04 04:35 UTC NOAA

Bogalusa, George R Carr Memorial Air Field, LA, United States (KBXA) 30-48-49N 089-51-53W
Dec 03, 2022 - 11:35 PM EST / 2022.12.04 0435 UTC
Wind: from the N (010 degrees) at 6 MPH (5 KT):0
Visibility: 10 mile(s):0
Sky conditions: overcast
Temperature: 67.5 F (19.7 C)
Dew Point: 65.5 F (18.6 C)
Relative Humidity: 93%
Pressure (altimeter): 30.29 in. Hg (1025 hPa)
ob: KBXA 040435Z AUTO 01005KT 10SM SCT008 BKN015 OVC023 20/19 A3029 RMK AO2 T01970186
cycle: 4

Station Type Date Time Source
KBXA TAF UTC NOAA

Error!

Example: see airport list